Time;durP1;ratioP1;P1;durP2;ratioP2;P2;SDS_P1;SDS_P2;PMS_P1;PMS_P2;Temp;Humidity;BMP_temperature;BMP_pressure;BME280_temperature;BME280_humidity;BME280_pressure;Samples;Min_cycle;Max_cycle;Signal;HPM_P1;HPM_P2
2022/03/20 00:01:13;;;;;;;9.65;5.30;;;5.80;78.60;;;;;;5080665;28;20476;-80
2022/03/20 00:03:38;;;;;;;8.50;5.32;;;5.80;78.60;;;;;;5080445;28;20073;-80
2022/03/20 00:06:04;;;;;;;8.48;4.70;;;5.80;78.50;;;;;;5097148;28;20104;-80
2022/03/20 00:08:30;;;;;;;7.68;4.97;;;5.80;78.70;;;;;;5097151;28;20035;-80
2022/03/20 00:11:01;;;;;;;7.90;5.32;;;5.80;78.80;;;;;;5097394;28;20127;-80
2022/03/20 00:13:28;;;;;;;8.80;5.85;;;5.80;78.70;;;;;;5080296;28;20039;-80
2022/03/20 00:15:55;;;;;;;9.18;5.20;;;5.70;78.70;;;;;;5080190;28;20039;-80
2022/03/20 00:18:23;;;;;;;9.48;5.60;;;5.70;78.80;;;;;;5080081;28;20167;-80
2022/03/20 00:20:59;;;;;;;7.25;5.60;;;5.70;78.80;;;;;;5096733;28;20310;-80
2022/03/20 00:23:26;;;;;;;8.38;5.15;;;5.70;79.10;;;;;;5096893;28;20127;-80
2022/03/20 00:25:52;;;;;;;9.35;6.03;;;5.60;78.90;;;;;;5096736;28;20117;-80
2022/03/20 00:28:20;;;;;;;10.45;6.13;;;5.60;78.90;;;;;;5096954;28;20079;-80
2022/03/20 00:30:47;;;;;;;9.68;5.78;;;5.50;79.00;;;;;;5063250;28;20065;-80
2022/03/20 00:33:14;;;;;;;9.25;5.80;;;5.40;79.10;;;;;;5096853;28;20407;-80
2022/03/20 00:35:40;;;;;;;11.45;5.70;;;5.30;79.00;;;;;;5096826;28;20040;-80
2022/03/20 00:38:07;;;;;;;12.65;5.75;;;5.30;79.10;;;;;;5096585;28;20043;-80
2022/03/20 00:40:33;;;;;;;10.38;6.15;;;5.30;79.30;;;;;;5096814;28;20040;-80
2022/03/20 00:42:59;;;;;;;9.48;5.47;;;5.20;79.40;;;;;;5079729;28;20051;-80
2022/03/20 00:45:26;;;;;;;7.22;5.53;;;5.10;79.60;;;;;;5079641;28;20044;-80
2022/03/20 00:47:52;;;;;;;8.88;5.45;;;5.10;79.60;;;;;;5096343;28;20055;-80
2022/03/20 00:50:17;;;;;;;8.80;5.57;;;5.10;79.70;;;;;;5079663;28;20036;-80
2022/03/20 00:52:43;;;;;;;9.02;5.88;;;5.10;79.80;;;;;;5079362;28;20071;-80
2022/03/20 00:55:09;;;;;;;8.73;5.95;;;5.00;80.10;;;;;;5096207;28;20376;-80
2022/03/20 00:57:35;;;;;;;11.23;6.90;;;5.00;80.10;;;;;;5079255;28;20109;-80
2022/03/20 01:00:00;;;;;;;8.68;5.72;;;5.00;80.10;;;;;;5096200;28;20036;-80
2022/03/20 01:02:26;;;;;;;9.65;6.13;;;5.00;80.30;;;;;;5079403;28;20047;-80
2022/03/20 01:04:52;;;;;;;8.23;5.43;;;5.00;80.50;;;;;;5079036;28;20075;-80
2022/03/20 01:07:18;;;;;;;10.07;6.45;;;4.90;80.60;;;;;;5096186;28;20107;-80
2022/03/20 01:09:43;;;;;;;11.73;6.53;;;4.90;80.90;;;;;;5095441;28;20035;-80
2022/03/20 01:12:09;;;;;;;11.35;6.35;;;4.90;80.80;;;;;;5079110;28;20097;-80
2022/03/20 01:14:35;;;;;;;8.93;6.45;;;4.90;81.00;;;;;;5095798;28;20082;-80
2022/03/20 01:17:01;;;;;;;10.30;6.05;;;4.80;81.30;;;;;;5095772;28;20044;-80
2022/03/20 01:19:27;;;;;;;9.43;6.43;;;4.80;81.00;;;;;;5095771;28;20459;-80
2022/03/20 01:21:54;;;;;;;10.63;7.45;;;4.70;81.40;;;;;;5095690;28;20048;-80
2022/03/20 01:24:21;;;;;;;9.75;6.22;;;4.70;81.40;;;;;;5095637;28;20047;-80
2022/03/20 01:26:47;;;;;;;9.80;6.15;;;4.70;81.20;;;;;;5095914;28;20039;-80
2022/03/20 01:29:12;;;;;;;11.32;7.10;;;4.60;81.30;;;;;;5096142;28;20400;-80
2022/03/20 01:31:38;;;;;;;12.13;6.40;;;4.60;81.10;;;;;;5095690;28;20507;-80
2022/03/20 01:34:05;;;;;;;9.18;6.57;;;4.60;81.10;;;;;;5095582;28;20042;-80
2022/03/20 01:36:30;;;;;;;9.95;6.20;;;4.60;81.00;;;;;;5095153;28;20042;-80
2022/03/20 01:38:57;;;;;;;11.70;6.55;;;4.50;81.60;;;;;;5095491;28;20035;-79
2022/03/20 01:41:24;;;;;;;10.57;7.10;;;4.50;81.60;;;;;;5095522;28;20046;-80
2022/03/20 01:43:57;;;;;;;11.15;6.63;;;4.40;81.90;;;;;;5095418;28;20043;-80
2022/03/20 01:46:23;;;;;;;11.73;6.40;;;4.40;81.90;;;;;;5095617;28;20039;-80
2022/03/20 01:48:49;;;;;;;14.93;7.05;;;4.40;82.00;;;;;;5078538;28;20529;-80
2022/03/20 01:51:16;;;;;;;9.85;7.30;;;4.40;82.20;;;;;;5095310;28;20086;-80
2022/03/20 01:53:42;;;;;;;12.25;6.68;;;4.30;82.00;;;;;;5095388;28;20407;-80
2022/03/20 01:56:08;;;;;;;10.30;6.28;;;4.40;82.10;;;;;;5095428;28;20039;-80
2022/03/20 01:58:34;;;;;;;10.20;6.10;;;4.30;82.70;;;;;;5094943;28;20514;-79
2022/03/20 02:01:02;;;;;;;11.63;6.97;;;4.20;83.10;;;;;;5095553;28;20095;-80
2022/03/20 02:03:29;;;;;;;11.15;7.20;;;4.10;83.10;;;;;;5095594;28;20044;-80
2022/03/20 02:05:55;;;;;;;14.45;7.32;;;4.20;82.90;;;;;;5095127;28;20039;-80
2022/03/20 02:08:25;;;;;;;12.60;6.50;;;4.20;83.30;;;;;;5095077;28;20048;-80
2022/03/20 02:10:52;;;;;;;12.50;6.82;;;4.10;83.50;;;;;;5095160;28;20122;-80
2022/03/20 02:13:24;;;;;;;11.35;7.15;;;4.20;82.80;;;;;;5094983;28;20050;-80
2022/03/20 02:15:51;;;;;;;12.10;6.82;;;4.20;83.20;;;;;;5095041;28;20047;-80
2022/03/20 02:18:18;;;;;;;10.07;7.28;;;4.10;83.30;;;;;;5094972;28;20381;-80
2022/03/20 02:20:48;;;;;;;13.32;7.53;;;4.20;83.00;;;;;;5096040;28;20056;-80
2022/03/20 02:23:15;;;;;;;12.75;7.20;;;4.10;83.10;;;;;;5099566;28;20069;-80
2022/03/20 02:25:51;;;;;;;11.13;8.10;;;4.10;83.60;;;;;;5082523;28;20364;-80
2022/03/20 02:28:17;;;;;;;10.10;6.90;;;4.10;83.70;;;;;;5099117;28;20048;-80
2022/03/20 02:30:45;;;;;;;13.00;7.65;;;4.10;83.80;;;;;;5099081;28;20039;-79
2022/03/20 02:33:11;;;;;;;11.35;7.40;;;4.00;83.60;;;;;;5099142;28;20376;-80
2022/03/20 02:35:39;;;;;;;12.63;7.05;;;4.00;84.00;;;;;;5098981;28;20043;-80
2022/03/20 02:38:10;;;;;;;13.35;7.80;;;3.90;84.00;;;;;;5081871;28;20035;-80
2022/03/20 02:40:36;;;;;;;13.80;8.07;;;3.90;84.10;;;;;;5082055;28;20118;-79
2022/03/20 02:43:05;;;;;;;11.82;7.57;;;3.90;84.20;;;;;;5098858;28;20083;-80
2022/03/20 02:45:33;;;;;;;12.52;7.93;;;3.90;83.80;;;;;;5098740;28;20079;-79
2022/03/20 02:48:00;;;;;;;12.52;7.32;;;3.90;83.70;;;;;;5098937;28;20126;-80
2022/03/20 02:50:34;;;;;;;12.65;7.43;;;4.00;83.90;;;;;;5098651;28;20096;-80
2022/03/20 02:53:02;;;;;;;12.25;8.25;;;4.00;83.70;;;;;;5098560;28;20126;-80
2022/03/20 02:55:35;;;;;;;10.75;7.35;;;3.90;83.00;;;;;;5081589;28;20103;-80
2022/03/20 02:58:02;;;;;;;11.73;7.45;;;3.90;83.30;;;;;;5098804;28;20043;-80
2022/03/20 03:00:31;;;;;;;11.88;7.53;;;3.90;83.70;;;;;;5098509;28;20537;-80
2022/03/20 03:02:59;;;;;;;9.98;7.15;;;3.90;83.70;;;;;;5098757;28;20126;-80
2022/03/20 03:05:27;;;;;;;13.80;7.93;;;3.90;83.50;;;;;;5081510;28;20048;-80
2022/03/20 03:10:57;;;;;;;13.68;8.73;;;3.80;83.70;;;;;;5098340;28;20051;-79
2022/03/20 03:13:38;;;;;;;12.80;7.33;;;3.70;83.60;;;;;;5098272;28;20044;-80
2022/03/20 03:16:09;;;;;;;13.70;8.85;;;3.80;83.80;;;;;;5081371;28;20277;-80
2022/03/20 03:18:36;;;;;;;10.38;8.80;;;3.70;83.70;;;;;;5098158;28;20051;-80
2022/03/20 03:21:02;;;;;;;11.65;7.47;;;3.70;83.60;;;;;;5094637;28;20055;-80
2022/03/20 03:23:29;;;;;;;14.18;9.55;;;3.60;84.10;;;;;;5061584;28;20036;-79
2022/03/20 03:25:56;;;;;;;14.20;9.57;;;3.60;84.30;;;;;;5094500;28;20044;-79
2022/03/20 03:28:23;;;;;;;11.60;8.57;;;3.60;84.70;;;;;;5094587;28;20063;-80
2022/03/20 03:30:50;;;;;;;12.98;9.02;;;3.50;84.80;;;;;;5077541;28;20040;-79
2022/03/20 03:33:21;;;;;;;13.60;9.13;;;3.50;84.70;;;;;;5094212;28;20503;-80
2022/03/20 03:35:53;;;;;;;18.63;10.02;;;3.50;84.80;;;;;;5094717;28;20140;-80
2022/03/20 03:38:22;;;;;;;12.88;8.07;;;3.40;84.90;;;;;;5094743;28;20047;-79
2022/03/20 03:40:49;;;;;;;12.07;9.02;;;3.40;84.70;;;;;;5077941;28;20070;-80
2022/03/20 03:43:17;;;;;;;14.50;10.45;;;3.40;85.00;;;;;;5094270;28;20127;-80
2022/03/20 03:45:43;;;;;;;15.63;9.93;;;3.40;84.80;;;;;;5094214;28;20055;-80
2022/03/20 03:48:10;;;;;;;13.07;9.23;;;3.40;84.90;;;;;;5061058;28;20039;-79
2022/03/20 03:50:37;;;;;;;18.50;10.65;;;3.40;84.80;;;;;;5077298;28;20047;-79
2022/03/20 03:53:04;;;;;;;13.43;9.60;;;3.40;84.40;;;;;;5077363;28;20385;-79
2022/03/20 03:55:31;;;;;;;15.48;9.57;;;3.40;84.50;;;;;;5094180;28;20032;-80
2022/03/20 03:57:57;;;;;;;15.60;9.90;;;3.30;84.70;;;;;;5077436;28;20438;-80
2022/03/20 04:00:24;;;;;;;14.73;10.18;;;3.30;84.70;;;;;;5077120;28;20118;-80
2022/03/20 04:02:50;;;;;;;15.73;10.10;;;3.30;84.60;;;;;;5093969;28;20066;-80
2022/03/20 04:05:19;;;;;;;16.48;11.32;;;3.30;84.60;;;;;;5077281;28;20032;-80
2022/03/20 04:07:47;;;;;;;14.52;10.18;;;3.20;84.70;;;;;;5076946;28;20040;-80
2022/03/20 04:10:15;;;;;;;18.35;11.00;;;3.20;84.50;;;;;;5060533;28;20078;-80
2022/03/20 04:12:41;;;;;;;17.30;10.30;;;3.20;84.50;;;;;;5093909;28;20080;-80
2022/03/20 04:15:11;;;;;;;15.60;10.43;;;3.20;84.40;;;;;;5093776;28;20036;-80
2022/03/20 04:17:38;;;;;;;17.27;10.80;;;3.20;84.30;;;;;;5093924;28;20047;-80
2022/03/20 04:20:06;;;;;;;16.98;10.98;;;3.20;84.20;;;;;;5079429;28;20090;-80
2022/03/20 04:22:36;;;;;;;17.58;11.93;;;3.20;84.00;;;;;;5097326;28;20051;-80
2022/03/20 04:25:02;;;;;;;16.33;11.07;;;3.20;83.90;;;;;;5097056;28;20048;-80
2022/03/20 04:27:28;;;;;;;16.33;11.18;;;3.20;83.80;;;;;;5096837;28;20047;-80
2022/03/20 04:29:54;;;;;;;19.30;12.38;;;3.10;83.70;;;;;;5096851;28;20047;-80
2022/03/20 04:32:20;;;;;;;16.58;11.45;;;3.10;83.80;;;;;;5079867;28;20039;-80
2022/03/20 04:34:46;;;;;;;18.05;10.68;;;3.20;83.60;;;;;;5063465;28;20373;-79
2022/03/20 04:37:13;;;;;;;17.40;11.50;;;3.20;83.40;;;;;;5096630;28;20035;-80
2022/03/20 04:39:39;;;;;;;19.83;13.23;;;3.20;83.40;;;;;;5096878;28;20075;-80
2022/03/20 04:42:06;;;;;;;21.13;13.48;;;3.10;83.00;;;;;;5096593;28;20039;-80
2022/03/20 04:44:32;;;;;;;18.40;11.65;;;3.20;83.10;;;;;;5095834;28;20373;-80
2022/03/20 04:46:58;;;;;;;18.95;12.15;;;3.10;83.00;;;;;;5096370;28;20039;-79
2022/03/20 05:00:22;;;;;;;23.63;13.60;;;3.00;83.00;;;;;;5081852;28;20050;-80
2022/03/20 05:02:48;;;;;;;18.00;12.55;;;2.90;82.80;;;;;;5096391;28;20372;-80
2022/03/20 05:05:18;;;;;;;20.55;13.25;;;2.90;83.00;;;;;;5096441;28;20031;-80
2022/03/20 05:07:43;;;;;;;20.63;14.13;;;2.90;83.00;;;;;;5096062;28;20035;-80
2022/03/20 05:15:39;;;;;;;17.02;13.45;;;2.90;82.70;;;;;;5081569;28;20506;-80
2022/03/20 05:18:07;;;;;;;21.23;13.50;;;2.90;82.30;;;;;;5079169;28;20039;-80
2022/03/20 05:20:32;;;;;;;21.88;13.60;;;3.00;82.50;;;;;;5078959;28;20060;-79
2022/03/20 05:22:59;;;;;;;20.27;13.70;;;3.00;82.20;;;;;;5096018;28;20329;-79
2022/03/20 05:25:28;;;;;;;21.35;13.93;;;3.10;82.30;;;;;;5096009;28;20134;-79
2022/03/20 05:27:55;;;;;;;22.80;13.73;;;3.10;82.10;;;;;;5095726;28;20039;-80
2022/03/20 05:30:21;;;;;;;20.90;13.85;;;3.00;82.00;;;;;;5078619;28;20055;-80
2022/03/20 05:32:48;;;;;;;18.27;13.18;;;2.90;81.90;;;;;;5095439;28;20040;-80
2022/03/20 05:35:16;;;;;;;23.63;15.00;;;2.90;82.00;;;;;;5062326;28;20035;-80
2022/03/20 05:37:42;;;;;;;22.88;13.82;;;2.90;82.00;;;;;;5095093;28;20031;-80
2022/03/20 05:40:09;;;;;;;18.73;13.48;;;2.90;82.00;;;;;;5095583;28;20054;-79
2022/03/20 05:42:36;;;;;;;19.10;13.40;;;2.80;82.00;;;;;;5078829;28;20036;-80
2022/03/20 05:45:05;;;;;;;21.35;13.90;;;2.90;82.10;;;;;;5095597;28;20108;-80
2022/03/20 05:47:31;;;;;;;16.98;12.30;;;2.80;81.90;;;;;;5095335;28;20036;-80
2022/03/20 05:50:02;;;;;;;19.08;13.43;;;3.00;81.90;;;;;;5095140;28;20141;-80
2022/03/20 05:52:34;;;;;;;18.73;13.70;;;2.90;81.90;;;;;;5095391;28;20499;-80
2022/03/20 05:55:07;;;;;;;24.48;13.77;;;2.90;81.70;;;;;;5079290;28;20070;-79
2022/03/20 06:00:26;;;;;;;21.90;14.45;;;2.90;81.60;;;;;;5095329;28;20055;-80
2022/03/20 06:02:52;;;;;;;20.05;13.90;;;3.00;81.60;;;;;;5095173;28;20078;-80
2022/03/20 06:05:18;;;;;;;17.77;13.02;;;3.00;81.60;;;;;;5095317;28;20067;-79
2022/03/20 06:07:46;;;;;;;22.95;15.15;;;3.00;81.50;;;;;;5095000;28;20043;-79
2022/03/20 06:10:14;;;;;;;19.90;14.50;;;3.00;81.20;;;;;;5095464;28;20078;-79
2022/03/20 06:12:40;;;;;;;25.02;14.73;;;3.00;81.30;;;;;;5078293;28;20043;-79
2022/03/20 06:15:10;;;;;;;18.48;13.90;;;3.00;81.30;;;;;;5061872;28;20126;-80
2022/03/20 06:17:41;;;;;;;20.08;14.15;;;3.00;81.20;;;;;;5095010;28;20041;-79
2022/03/20 06:20:08;;;;;;;21.75;14.90;;;3.00;81.10;;;;;;5094914;28;20090;-79
2022/03/20 06:22:35;;;;;;;21.30;14.80;;;2.90;80.70;;;;;;5078153;28;20074;-79
2022/03/20 06:25:08;;;;;;;19.95;14.73;;;3.00;81.10;;;;;;5061855;28;20126;-79
2022/03/20 06:27:52;;;;;;;19.23;14.20;;;3.00;81.10;;;;;;5094909;28;20039;-80
2022/03/20 06:30:20;;;;;;;22.98;14.13;;;3.00;81.10;;;;;;5094875;28;20050;-79
2022/03/20 06:32:47;;;;;;;22.52;15.27;;;3.00;81.10;;;;;;5095135;28;20039;-79
2022/03/20 06:35:14;;;;;;;24.90;16.10;;;3.10;80.70;;;;;;5078117;28;20035;-80
2022/03/20 06:37:43;;;;;;;23.02;15.30;;;3.10;80.40;;;;;;5094993;28;20506;-79
2022/03/20 06:40:13;;;;;;;22.70;14.63;;;3.10;80.30;;;;;;5094926;28;20082;-79
2022/03/20 06:42:39;;;;;;;21.75;14.40;;;3.10;80.50;;;;;;5094922;28;20040;-79
2022/03/20 06:45:08;;;;;;;23.02;14.43;;;3.10;80.20;;;;;;5094731;28;20050;-80
2022/03/20 06:47:35;;;;;;;19.83;14.90;;;3.20;80.30;;;;;;5077869;28;20108;-80
2022/03/20 06:50:02;;;;;;;21.30;14.73;;;3.30;80.10;;;;;;5094775;28;20044;-80
2022/03/20 06:52:28;;;;;;;21.50;15.15;;;3.40;80.10;;;;;;5094836;28;20432;-78
2022/03/20 06:55:02;;;;;;;23.48;16.33;;;3.40;79.40;;;;;;5061317;28;20181;-80
2022/03/20 06:57:28;;;;;;;25.95;16.05;;;3.50;79.10;;;;;;5094713;28;20119;-80
2022/03/20 06:59:59;;;;;;;22.27;15.43;;;3.50;79.40;;;;;;5094652;28;20040;-79
2022/03/20 07:02:26;;;;;;;22.70;15.27;;;3.60;79.70;;;;;;5094442;28;20039;-80
2022/03/20 07:04:53;;;;;;;20.98;14.38;;;3.60;79.40;;;;;;5094452;28;20082;-79
2022/03/20 07:07:20;;;;;;;22.83;16.13;;;3.70;79.30;;;;;;5080080;28;20438;-79
2022/03/20 07:09:46;;;;;;;26.92;17.50;;;3.80;79.10;;;;;;5081495;28;20039;-79
2022/03/20 07:12:13;;;;;;;23.75;17.02;;;3.80;78.40;;;;;;5098528;28;20522;-80
2022/03/20 07:14:39;;;;;;;20.02;14.68;;;3.80;78.80;;;;;;5098193;28;20047;-79
2022/03/20 07:17:07;;;;;;;21.95;14.43;;;3.90;78.60;;;;;;5098385;28;20031;-79
2022/03/20 07:19:35;;;;;;;20.63;14.55;;;4.10;78.20;;;;;;5064889;28;20036;-79
2022/03/20 07:22:01;;;;;;;21.27;15.23;;;4.10;78.10;;;;;;5080910;28;20044;-80
2022/03/20 07:24:27;;;;;;;21.92;15.82;;;4.10;78.00;;;;;;5081291;28;20104;-79
2022/03/20 07:29:37;;;;;;;23.70;14.48;;;4.10;77.20;;;;;;5098341;28;20085;-79
2022/03/20 07:32:06;;;;;;;21.85;15.70;;;4.20;77.60;;;;;;5098546;28;20483;-78
2022/03/20 07:34:36;;;;;;;23.13;17.63;;;4.30;76.90;;;;;;5080986;28;20051;-78
2022/03/20 07:37:04;;;;;;;23.50;16.20;;;4.40;77.00;;;;;;5097847;28;20044;-78
2022/03/20 07:39:30;;;;;;;21.52;15.02;;;4.40;76.30;;;;;;5080921;28;20046;-79
2022/03/20 07:41:57;;;;;;;23.42;15.40;;;4.50;76.30;;;;;;5098001;28;20082;-79
2022/03/20 07:44:24;;;;;;;24.52;16.35;;;4.50;76.00;;;;;;5064360;28;20620;-79
2022/03/20 07:46:52;;;;;;;22.50;16.60;;;4.50;75.10;;;;;;5097628;28;20084;-79
2022/03/20 07:49:20;;;;;;;23.77;17.23;;;4.60;74.90;;;;;;5097801;28;20058;-78
2022/03/20 07:51:46;;;;;;;20.13;14.95;;;4.60;75.50;;;;;;5097797;28;20388;-79
2022/03/20 07:54:12;;;;;;;19.77;13.90;;;4.70;74.90;;;;;;5097514;28;20055;-78
2022/03/20 07:56:38;;;;;;;21.35;14.43;;;4.70;74.80;;;;;;5080537;28;20046;-78
2022/03/20 07:59:07;;;;;;;21.23;16.05;;;4.80;74.60;;;;;;5097648;28;20399;-78
2022/03/20 08:01:34;;;;;;;22.83;15.02;;;4.90;73.80;;;;;;5097659;28;20118;-79
2022/03/20 08:04:00;;;;;;;18.67;14.40;;;4.90;74.20;;;;;;5063173;28;20083;-79
2022/03/20 08:06:26;;;;;;;23.02;15.88;;;5.00;74.40;;;;;;5097183;28;20051;-79
2022/03/20 08:08:52;;;;;;;25.52;15.80;;;5.10;73.60;;;;;;5096921;28;20054;-79
2022/03/20 08:11:19;;;;;;;21.30;15.00;;;5.10;73.70;;;;;;5097285;28;20099;-80
2022/03/20 08:13:46;;;;;;;22.05;15.18;;;5.20;73.50;;;;;;5097076;28;20043;-79
2022/03/20 08:16:15;;;;;;;20.25;15.32;;;5.30;73.50;;;;;;5097047;28;20043;-80
2022/03/20 08:18:43;;;;;;;22.00;16.08;;;5.30;73.10;;;;;;5097253;28;20039;-80
2022/03/20 08:21:11;;;;;;;19.45;14.50;;;5.40;72.70;;;;;;5096833;28;20236;-80
2022/03/20 08:23:41;;;;;;;21.55;15.70;;;5.50;72.50;;;;;;5096975;28;20126;-80
2022/03/20 08:26:08;;;;;;;22.83;15.70;;;5.60;72.50;;;;;;5096850;28;20044;-79
2022/03/20 08:28:38;;;;;;;26.85;17.17;;;5.60;72.50;;;;;;5097163;28;20062;-80
2022/03/20 08:31:06;;;;;;;22.52;16.33;;;5.70;72.50;;;;;;5063361;28;20047;-80
2022/03/20 08:33:32;;;;;;;27.13;16.48;;;5.80;71.70;;;;;;5079863;28;20075;-80
2022/03/20 08:35:59;;;;;;;24.20;16.60;;;5.80;71.20;;;;;;5096617;28;20123;-81
2022/03/20 08:38:24;;;;;;;25.25;16.52;;;5.90;71.40;;;;;;5096725;28;20071;-80
2022/03/20 08:40:50;;;;;;;25.77;17.77;;;6.00;71.20;;;;;;5096817;28;20082;-80
2022/03/20 08:43:16;;;;;;;24.25;17.50;;;6.10;70.60;;;;;;5079735;28;20043;-80
2022/03/20 08:45:43;;;;;;;28.52;16.42;;;6.10;71.00;;;;;;5096267;28;20040;-81
2022/03/20 08:48:09;;;;;;;24.90;16.85;;;6.20;70.50;;;;;;5096417;28;20048;-80
2022/03/20 08:50:35;;;;;;;29.55;18.67;;;6.30;70.10;;;;;;5096438;28;20451;-80
2022/03/20 08:53:01;;;;;;;27.40;18.85;;;6.30;68.90;;;;;;5079329;28;20074;-80
2022/03/20 08:55:27;;;;;;;25.10;17.50;;;6.40;68.70;;;;;;5096436;28;20070;-80
2022/03/20 08:57:54;;;;;;;23.38;17.65;;;6.50;69.10;;;;;;5096410;28;20071;-80
2022/03/20 09:00:22;;;;;;;26.80;18.05;;;6.60;65.90;;;;;;5073100;28;20043;-80
2022/03/20 09:02:50;;;;;;;26.33;18.92;;;6.60;65.20;;;;;;5084527;28;20069;-81
2022/03/20 09:05:17;;;;;;;25.27;18.88;;;6.70;66.60;;;;;;5080747;28;20036;-82
2022/03/20 09:07:44;;;;;;;26.20;17.83;;;6.80;66.80;;;;;;5076812;28;20472;-82
2022/03/20 09:10:13;;;;;;;28.63;17.25;;;6.90;63.20;;;;;;5049932;28;20503;-82
2022/03/20 09:12:38;;;;;;;26.65;17.25;;;7.10;66.60;;;;;;5064273;28;20035;-81
2022/03/20 09:15:07;;;;;;;25.52;18.63;;;7.10;64.10;;;;;;5082588;28;20054;-83
2022/03/20 09:20:17;;;;;;;23.85;17.48;;;7.30;65.50;;;;;;5064880;28;20096;-83
2022/03/20 09:22:43;;;;;;;24.80;17.35;;;7.50;65.20;;;;;;5044286;28;20048;-82
2022/03/20 09:25:09;;;;;;;23.65;18.15;;;7.50;64.70;;;;;;5060120;28;20047;-82
2022/03/20 09:27:35;;;;;;;28.20;18.73;;;7.50;60.90;;;;;;5044375;28;20509;-82
2022/03/20 09:30:05;;;;;;;24.95;18.73;;;7.60;63.20;;;;;;5077723;28;20079;-82
2022/03/20 09:32:30;;;;;;;25.35;18.42;;;7.80;62.60;;;;;;5064453;28;20044;-81
2022/03/20 09:34:56;;;;;;;26.90;18.08;;;7.80;60.90;;;;;;5078365;28;20052;-82
2022/03/20 09:37:22;;;;;;;26.08;18.33;;;7.90;62.00;;;;;;5081301;28;20511;-83
2022/03/20 09:39:47;;;;;;;29.08;17.80;;;8.00;60.90;;;;;;5081975;28;20130;-82
2022/03/20 09:42:13;;;;;;;23.55;19.70;;;8.10;62.00;;;;;;5077596;28;20044;-82
2022/03/20 09:44:40;;;;;;;26.63;17.85;;;8.10;56.60;;;;;;5061300;28;20423;-82
2022/03/20 09:47:16;;;;;;;23.75;18.33;;;8.10;59.90;;;;;;5067509;28;20077;-82
2022/03/20 09:49:46;;;;;;;24.15;18.67;;;8.10;56.20;;;;;;5079852;28;20048;-83
2022/03/20 09:52:13;;;;;;;25.73;19.17;;;8.30;60.10;;;;;;5062250;28;20151;-84
2022/03/20 09:54:39;;;;;;;25.85;18.55;;;8.20;56.10;;;;;;5076416;28;20127;-82
2022/03/20 09:57:06;;;;;;;23.38;17.73;;;8.20;56.80;;;;;;5078946;28;20189;-82
2022/03/20 09:59:33;;;;;;;27.55;19.23;;;8.30;57.50;;;;;;5059552;28;20495;-82
2022/03/20 10:02:08;;;;;;;27.65;19.33;;;8.40;56.50;;;;;;5078138;28;20040;-82
2022/03/20 10:04:52;;;;;;;31.90;19.80;;;8.40;55.50;;;;;;5079653;28;20048;-82
2022/03/20 10:07:23;;;;;;;26.90;18.55;;;8.50;53.90;;;;;;5081766;28;20043;-82
2022/03/20 10:10:19;;;;;;;26.42;19.35;;;8.60;56.90;;;;;;5046384;28;20047;-82
2022/03/20 10:12:53;;;;;;;27.55;19.27;;;8.70;57.30;;;;;;5061893;28;20047;-82
2022/03/20 10:15:39;;;;;;;25.05;18.40;;;8.90;56.50;;;;;;5077605;28;20040;-82
2022/03/20 10:18:11;;;;;;;26.98;20.27;;;9.10;56.60;;;;;;5076930;28;20491;-83
2022/03/20 10:20:48;;;;;;;27.92;19.65;;;9.00;52.60;;;;;;5061025;28;20822;-82
2022/03/20 10:23:38;;;;;;;25.17;18.30;;;9.00;54.60;;;;;;5081403;28;20064;-83
2022/03/20 10:26:07;;;;;;;30.42;19.63;;;9.10;52.80;;;;;;5080184;28;20048;-83
2022/03/20 10:28:38;;;;;;;24.95;18.83;;;9.10;51.70;;;;;;5077990;28;20044;-83
2022/03/20 10:31:06;;;;;;;26.55;18.20;;;9.10;53.30;;;;;;5076870;28;20700;-81
2022/03/20 10:33:33;;;;;;;24.92;19.40;;;9.30;54.80;;;;;;5077861;28;20055;-82
2022/03/20 10:36:15;;;;;;;29.98;20.77;;;9.50;53.40;;;;;;5076740;28;20047;-81
2022/03/20 10:38:43;;;;;;;26.08;19.40;;;9.50;52.00;;;;;;5076592;28;21226;-83
2022/03/20 10:41:28;;;;;;;28.73;20.23;;;9.60;53.10;;;;;;5075396;28;20068;-82
2022/03/20 10:43:55;;;;;;;27.40;18.75;;;9.70;53.90;;;;;;5065482;28;20096;-81
2022/03/20 10:46:32;;;;;;;27.25;18.65;;;10.00;54.50;;;;;;5062637;28;20068;-80
2022/03/20 10:49:02;;;;;;;26.70;19.58;;;10.00;53.90;;;;;;5065689;28;20043;-83
2022/03/20 10:51:43;;;;;;;28.35;20.17;;;10.10;52.90;;;;;;5078322;28;20068;-81
2022/03/20 10:54:22;;;;;;;27.30;19.65;;;10.20;52.60;;;;;;5079793;28;20362;-79
2022/03/20 10:56:56;;;;;;;26.23;18.48;;;10.30;53.30;;;;;;5065235;28;20070;-82
2022/03/20 10:59:23;;;;;;;26.48;20.85;;;10.20;50.70;;;;;;5078409;28;20063;-82
2022/03/20 11:01:49;;;;;;;28.92;20.40;;;10.40;52.10;;;;;;5067355;28;20071;-81
2022/03/20 11:04:16;;;;;;;26.23;19.25;;;10.50;50.90;;;;;;5085771;28;20523;-79
2022/03/20 11:06:43;;;;;;;29.50;20.95;;;10.60;52.70;;;;;;5098644;28;20052;-81
2022/03/20 11:09:10;;;;;;;30.67;19.75;;;10.80;51.20;;;;;;5081603;28;20510;-82
2022/03/20 11:11:44;;;;;;;26.42;20.08;;;10.70;48.20;;;;;;5081777;28;20096;-81
2022/03/20 11:14:15;;;;;;;27.23;19.85;;;10.70;48.20;;;;;;5098318;28;20050;-81
2022/03/20 11:16:42;;;;;;;25.23;19.02;;;10.70;47.30;;;;;;5098157;28;20040;-81
2022/03/20 11:19:13;;;;;;;26.85;21.83;;;10.80;49.40;;;;;;5081583;28;20071;-80
2022/03/20 11:21:44;;;;;;;29.00;20.02;;;10.80;48.00;;;;;;5081144;28;20050;-82
2022/03/20 11:24:11;;;;;;;24.42;20.35;;;11.00;50.30;;;;;;5098090;28;20079;-80
2022/03/20 11:26:39;;;;;;;30.20;21.50;;;11.20;51.00;;;;;;5081421;28;20438;-80
2022/03/20 11:29:08;;;;;;;28.38;19.83;;;11.30;48.00;;;;;;5098021;28;20039;-82
2022/03/20 11:31:36;;;;;;;28.75;20.40;;;11.40;48.10;;;;;;5098209;28;20039;-82
2022/03/20 11:34:07;;;;;;;32.10;21.15;;;11.50;49.70;;;;;;5097863;28;20061;-81
2022/03/20 11:36:53;;;;;;;26.38;19.92;;;11.70;50.00;;;;;;5098073;28;20040;-81
2022/03/20 11:39:19;;;;;;;26.83;21.13;;;11.90;49.60;;;;;;5097399;28;20043;-80
2022/03/20 11:41:44;;;;;;;28.10;21.25;;;12.00;49.40;;;;;;5098053;28;20031;-83
2022/03/20 11:44:20;;;;;;;30.25;20.83;;;12.10;48.80;;;;;;5098235;28;20440;-81
2022/03/20 11:46:46;;;;;;;28.92;19.70;;;12.20;47.60;;;;;;5097890;28;20444;-81
2022/03/20 11:49:18;;;;;;;31.58;22.98;;;12.40;48.00;;;;;;5081172;28;20055;-79
2022/03/20 11:52:09;;;;;;;24.35;19.90;;;12.50;47.10;;;;;;5097310;28;20047;-80
2022/03/20 11:54:40;;;;;;;27.00;21.60;;;12.50;45.50;;;;;;5080851;28;20050;-78
2022/03/20 11:57:28;;;;;;;25.42;19.83;;;12.60;46.70;;;;;;5097531;28;20043;-78
2022/03/20 12:00:18;;;;;;;27.30;21.38;;;12.60;45.80;;;;;;5080491;28;20069;-77
2022/03/20 12:03:14;;;;;;;30.42;21.77;;;12.60;44.70;;;;;;5097434;28;20075;-78
2022/03/20 12:06:05;;;;;;;31.70;23.58;;;12.50;42.10;;;;;;5082216;28;20050;-79
2022/03/20 12:08:56;;;;;;;29.75;22.85;;;12.60;44.50;;;;;;5080165;28;20052;-81
2022/03/20 12:11:41;;;;;;;26.52;20.65;;;12.50;43.10;;;;;;5080256;28;20044;-81
2022/03/20 12:14:27;;;;;;;27.08;20.83;;;12.60;43.50;;;;;;5080379;28;20040;-82
2022/03/20 12:16:58;;;;;;;28.38;22.50;;;12.60;42.90;;;;;;5079125;28;20036;-83
2022/03/20 12:19:42;;;;;;;31.48;22.10;;;12.70;43.90;;;;;;5079090;28;20071;-82
2022/03/20 12:22:16;;;;;;;31.88;23.60;;;12.60;43.10;;;;;;5062407;28;20070;-82
2022/03/20 12:24:52;;;;;;;30.40;22.88;;;12.60;44.90;;;;;;5063178;28;20137;-82
2022/03/20 12:27:27;;;;;;;28.35;21.08;;;12.50;43.20;;;;;;5083646;28;20050;-82
2022/03/20 12:30:12;;;;;;;29.25;22.17;;;12.30;44.30;;;;;;5062700;28;20066;-81
2022/03/20 12:32:47;;;;;;;28.00;21.52;;;12.30;42.70;;;;;;5081016;28;20537;-81
2022/03/20 12:35:49;;;;;;;30.48;21.23;;;12.40;45.70;;;;;;5063846;28;20501;-81
2022/03/20 12:38:34;;;;;;;28.05;22.33;;;12.60;45.70;;;;;;5040306;28;20084;-81
2022/03/20 12:41:18;;;;;;;30.17;21.55;;;12.80;47.10;;;;;;5080670;28;20035;-81
2022/03/20 12:43:57;;;;;;;29.27;21.80;;;13.00;47.10;;;;;;5081305;28;20051;-82
2022/03/20 12:46:24;;;;;;;30.60;21.77;;;13.00;43.70;;;;;;5078586;28;20054;-81
2022/03/20 12:48:56;;;;;;;27.98;21.00;;;13.00;44.90;;;;;;5065963;28;20412;-81
2022/03/20 12:51:34;;;;;;;32.08;22.63;;;12.90;44.90;;;;;;5078326;28;20083;-83
2022/03/20 12:54:20;;;;;;;27.00;22.20;;;12.90;42.20;;;;;;5077915;28;20855;-82
2022/03/20 12:56:53;;;;;;;29.20;22.70;;;13.00;45.20;;;;;;5085274;28;20055;-82
2022/03/20 12:59:24;;;;;;;29.17;22.88;;;13.30;44.00;;;;;;5076875;28;20506;-82
2022/03/20 13:01:53;;;;;;;27.60;21.38;;;13.60;41.10;;;;;;5067120;28;20135;-82
2022/03/20 13:04:20;;;;;;;28.17;21.85;;;13.70;42.80;;;;;;5066151;28;20086;-83
2022/03/20 13:06:52;;;;;;;26.38;20.77;;;13.70;41.70;;;;;;5079691;28;20040;-82
2022/03/20 13:09:18;;;;;;;30.00;21.90;;;13.80;43.10;;;;;;5030176;28;20464;-82
2022/03/20 13:11:53;;;;;;;27.90;22.45;;;13.90;43.60;;;;;;5079826;28;20051;-82
2022/03/20 13:14:21;;;;;;;30.23;21.55;;;13.80;43.20;;;;;;5064854;28;20052;-82
2022/03/20 13:16:59;;;;;;;28.45;21.15;;;13.90;43.10;;;;;;5059672;28;20129;-82